sensor_id;sensor_type;location;lat;lon;timestamp;pressure;altitude;pressure_sealevel;temperature;humidity
22755;BME280;11544;42.020;23.094;2023-03-15T00:01:21;96210.81;;;9.77;63.47
22755;BME280;11544;42.020;23.094;2023-03-15T00:03:52;96216.28;;;9.53;64.39
22755;BME280;11544;42.020;23.094;2023-03-15T00:06:22;96208.47;;;9.53;64.79
22755;BME280;11544;42.020;23.094;2023-03-15T00:08:49;96213.66;;;9.53;64.73
22755;BME280;11544;42.020;23.094;2023-03-15T00:11:17;96208.22;;;9.77;64.00
22755;BME280;11544;42.020;23.094;2023-03-15T00:13:45;96198.69;;;9.75;64.23
22755;BME280;11544;42.020;23.094;2023-03-15T00:16:12;96199.53;;;9.95;63.83
22755;BME280;11544;42.020;23.094;2023-03-15T00:18:44;96193.69;;;9.90;63.59
22755;BME280;11544;42.020;23.094;2023-03-15T00:21:13;96190.44;;;9.85;63.89
22755;BME280;11544;42.020;23.094;2023-03-15T00:23:40;96184.34;;;9.49;65.48
22755;BME280;11544;42.020;23.094;2023-03-15T00:26:07;96179.09;;;9.68;64.68
22755;BME280;11544;42.020;23.094;2023-03-15T00:28:34;96174.06;;;9.65;64.72
22755;BME280;11544;42.020;23.094;2023-03-15T00:31:03;96171.63;;;9.80;63.88
22755;BME280;11544;42.020;23.094;2023-03-15T00:33:30;96180.97;;;9.66;63.60
22755;BME280;11544;42.020;23.094;2023-03-15T00:36:05;96176.53;;;9.86;63.74
22755;BME280;11544;42.020;23.094;2023-03-15T00:38:33;96172.00;;;9.72;63.30
22755;BME280;11544;42.020;23.094;2023-03-15T00:41:13;96175.81;;;9.65;63.89
22755;BME280;11544;42.020;23.094;2023-03-15T00:43:41;96171.00;;;9.57;64.47
22755;BME280;11544;42.020;23.094;2023-03-15T00:46:09;96165.91;;;9.54;64.53
22755;BME280;11544;42.020;23.094;2023-03-15T00:48:36;96161.53;;;9.37;65.49
22755;BME280;11544;42.020;23.094;2023-03-15T00:53:36;96161.25;;;9.61;65.61
22755;BME280;11544;42.020;23.094;2023-03-15T00:56:08;96156.66;;;9.48;65.65
22755;BME280;11544;42.020;23.094;2023-03-15T00:58:36;96163.50;;;9.32;66.94
22755;BME280;11544;42.020;23.094;2023-03-15T01:01:07;96155.66;;;9.51;67.48
22755;BME280;11544;42.020;23.094;2023-03-15T01:03:35;96149.88;;;9.27;68.31
22755;BME280;11544;42.020;23.094;2023-03-15T01:06:14;96151.81;;;9.41;68.09
22755;BME280;11544;42.020;23.094;2023-03-15T01:08:41;96151.88;;;9.39;68.58
22755;BME280;11544;42.020;23.094;2023-03-15T01:11:12;96144.84;;;9.41;69.05
22755;BME280;11544;42.020;23.094;2023-03-15T01:13:39;96146.72;;;9.57;67.63
22755;BME280;11544;42.020;23.094;2023-03-15T01:16:08;96133.22;;;9.31;68.34
22755;BME280;11544;42.020;23.094;2023-03-15T01:18:35;96130.97;;;9.60;68.20
22755;BME280;11544;42.020;23.094;2023-03-15T01:21:08;96124.38;;;9.16;68.75
22755;BME280;11544;42.020;23.094;2023-03-15T01:23:36;96118.06;;;9.22;69.45
22755;BME280;11544;42.020;23.094;2023-03-15T01:26:05;96118.72;;;9.25;68.85
22755;BME280;11544;42.020;23.094;2023-03-15T01:28:32;96108.66;;;9.00;68.63
22755;BME280;11544;42.020;23.094;2023-03-15T01:30:59;96107.78;;;9.19;69.15
22755;BME280;11544;42.020;23.094;2023-03-15T01:33:26;96105.25;;;9.53;67.45
22755;BME280;11544;42.020;23.094;2023-03-15T01:36:01;96103.56;;;9.16;68.56
22755;BME280;11544;42.020;23.094;2023-03-15T01:38:28;96099.28;;;9.51;68.10
22755;BME280;11544;42.020;23.094;2023-03-15T01:40:56;96091.69;;;9.47;68.33
22755;BME280;11544;42.020;23.094;2023-03-15T01:43:28;96079.56;;;9.11;68.54
22755;BME280;11544;42.020;23.094;2023-03-15T01:46:13;96070.28;;;9.42;68.41
22755;BME280;11544;42.020;23.094;2023-03-15T01:51:57;96071.81;;;9.28;69.19
22755;BME280;11544;42.020;23.094;2023-03-15T01:54:35;96076.09;;;9.47;67.13
22755;BME280;11544;42.020;23.094;2023-03-15T01:59:59;96073.13;;;8.82;71.08
22755;BME280;11544;42.020;23.094;2023-03-15T02:02:45;96066.94;;;8.84;71.38
22755;BME280;11544;42.020;23.094;2023-03-15T02:05:18;96071.31;;;8.84;70.89
22755;BME280;11544;42.020;23.094;2023-03-15T02:07:55;96071.34;;;9.01;69.87
22755;BME280;11544;42.020;23.094;2023-03-15T02:10:27;96070.72;;;8.96;70.36
22755;BME280;11544;42.020;23.094;2023-03-15T02:12:57;96073.94;;;9.01;69.96
22755;BME280;11544;42.020;23.094;2023-03-15T02:15:25;96069.91;;;8.96;70.45
22755;BME280;11544;42.020;23.094;2023-03-15T02:17:52;96066.88;;;9.05;70.88
22755;BME280;11544;42.020;23.094;2023-03-15T02:20:52;96070.09;;;9.27;68.57
22755;BME280;11544;42.020;23.094;2023-03-15T02:23:18;96060.69;;;9.25;68.31
22755;BME280;11544;42.020;23.094;2023-03-15T02:28:44;96057.16;;;9.26;67.13
22755;BME280;11544;42.020;23.094;2023-03-15T02:31:12;96056.38;;;9.43;67.34
22755;BME280;11544;42.020;23.094;2023-03-15T02:33:44;96037.91;;;9.30;65.81
22755;BME280;11544;42.020;23.094;2023-03-15T02:36:20;96024.22;;;9.61;67.17
22755;BME280;11544;42.020;23.094;2023-03-15T02:38:48;96020.53;;;9.30;67.05
22755;BME280;11544;42.020;23.094;2023-03-15T02:41:23;96019.41;;;9.36;67.27
22755;BME280;11544;42.020;23.094;2023-03-15T02:43:55;96015.94;;;9.01;66.70
22755;BME280;11544;42.020;23.094;2023-03-15T02:46:24;96008.69;;;9.25;67.28
22755;BME280;11544;42.020;23.094;2023-03-15T02:48:52;96018.03;;;9.29;67.87
22755;BME280;11544;42.020;23.094;2023-03-15T02:51:22;96014.44;;;9.31;67.18
22755;BME280;11544;42.020;23.094;2023-03-15T02:53:49;96006.50;;;9.52;66.31
22755;BME280;11544;42.020;23.094;2023-03-15T02:56:16;95997.59;;;9.39;66.73
22755;BME280;11544;42.020;23.094;2023-03-15T02:58:44;96000.66;;;9.47;67.43
22755;BME280;11544;42.020;23.094;2023-03-15T03:01:12;96004.50;;;9.57;66.60
22755;BME280;11544;42.020;23.094;2023-03-15T03:03:43;96013.94;;;9.06;67.82
22755;BME280;11544;42.020;23.094;2023-03-15T03:06:12;96004.19;;;8.56;70.50
22755;BME280;11544;42.020;23.094;2023-03-15T03:08:39;96006.13;;;8.88;70.49
22755;BME280;11544;42.020;23.094;2023-03-15T03:11:06;95999.66;;;8.78;70.07
22755;BME280;11544;42.020;23.094;2023-03-15T03:13:33;95988.59;;;8.75;69.67
22755;BME280;11544;42.020;23.094;2023-03-15T03:16:00;95990.22;;;8.95;68.29
22755;BME280;11544;42.020;23.094;2023-03-15T03:18:29;95988.59;;;8.75;69.31
22755;BME280;11544;42.020;23.094;2023-03-15T03:20:57;95985.34;;;8.88;68.70
22755;BME280;11544;42.020;23.094;2023-03-15T03:23:25;95980.38;;;9.01;68.21
22755;BME280;11544;42.020;23.094;2023-03-15T03:25:53;95975.28;;;8.44;70.37
22755;BME280;11544;42.020;23.094;2023-03-15T03:28:22;95968.28;;;8.46;70.88
22755;BME280;11544;42.020;23.094;2023-03-15T03:30:53;95980.19;;;8.87;69.90
22755;BME280;11544;42.020;23.094;2023-03-15T03:33:21;95973.44;;;8.65;70.04
22755;BME280;11544;42.020;23.094;2023-03-15T03:35:48;95976.38;;;8.94;69.04
22755;BME280;11544;42.020;23.094;2023-03-15T03:38:15;95983.31;;;8.38;70.75
22755;BME280;11544;42.020;23.094;2023-03-15T03:40:42;95979.66;;;8.80;69.60
22755;BME280;11544;42.020;23.094;2023-03-15T03:43:09;95971.19;;;8.77;68.80
22755;BME280;11544;42.020;23.094;2023-03-15T03:45:36;95982.06;;;8.66;69.96
22755;BME280;11544;42.020;23.094;2023-03-15T03:48:02;95980.88;;;8.16;71.94
22755;BME280;11544;42.020;23.094;2023-03-15T03:50:29;95960.28;;;9.05;70.20
22755;BME280;11544;42.020;23.094;2023-03-15T03:52:57;95965.91;;;9.30;68.23
22755;BME280;11544;42.020;23.094;2023-03-15T03:55:23;95969.47;;;8.76;68.08
22755;BME280;11544;42.020;23.094;2023-03-15T03:57:51;95951.63;;;9.04;67.58
22755;BME280;11544;42.020;23.094;2023-03-15T04:00:21;95958.47;;;8.71;68.70
22755;BME280;11544;42.020;23.094;2023-03-15T04:02:47;95959.34;;;9.06;68.67
22755;BME280;11544;42.020;23.094;2023-03-15T04:05:15;95965.44;;;8.87;68.34
22755;BME280;11544;42.020;23.094;2023-03-15T04:07:41;95955.81;;;8.89;68.78
22755;BME280;11544;42.020;23.094;2023-03-15T04:10:09;95942.69;;;9.10;67.03
22755;BME280;11544;42.020;23.094;2023-03-15T04:12:41;95954.94;;;8.72;67.13
22755;BME280;11544;42.020;23.094;2023-03-15T04:15:10;95937.78;;;8.50;66.78
22755;BME280;11544;42.020;23.094;2023-03-15T04:17:38;95935.97;;;8.88;66.50
22755;BME280;11544;42.020;23.094;2023-03-15T04:20:05;95932.03;;;8.62;66.46
22755;BME280;11544;42.020;23.094;2023-03-15T04:22:34;95926.06;;;8.78;66.76
22755;BME280;11544;42.020;23.094;2023-03-15T04:25:01;95935.28;;;8.30;67.77
22755;BME280;11544;42.020;23.094;2023-03-15T04:27:28;95937.84;;;8.67;68.01
22755;BME280;11544;42.020;23.094;2023-03-15T04:29:55;95948.78;;;8.74;66.43
22755;BME280;11544;42.020;23.094;2023-03-15T04:32:22;95950.50;;;8.56;66.49
22755;BME280;11544;42.020;23.094;2023-03-15T04:34:49;95950.59;;;8.72;66.67
22755;BME280;11544;42.020;23.094;2023-03-15T04:37:17;95958.19;;;8.94;66.70
22755;BME280;11544;42.020;23.094;2023-03-15T04:39:44;95961.94;;;8.88;66.19
22755;BME280;11544;42.020;23.094;2023-03-15T04:42:11;95965.75;;;8.81;67.65
22755;BME280;11544;42.020;23.094;2023-03-15T04:44:38;95971.81;;;8.25;68.23
22755;BME280;11544;42.020;23.094;2023-03-15T04:47:05;95970.91;;;8.64;69.71
22755;BME280;11544;42.020;23.094;2023-03-15T04:49:32;95977.25;;;9.12;67.76
22755;BME280;11544;42.020;23.094;2023-03-15T04:51:59;95989.06;;;8.83;67.29
22755;BME280;11544;42.020;23.094;2023-03-15T04:54:26;95986.91;;;8.55;69.11
22755;BME280;11544;42.020;23.094;2023-03-15T04:56:53;95991.31;;;8.72;69.33
22755;BME280;11544;42.020;23.094;2023-03-15T04:59:20;95980.44;;;8.82;67.47
22755;BME280;11544;42.020;23.094;2023-03-15T05:01:47;95977.16;;;8.79;66.66
22755;BME280;11544;42.020;23.094;2023-03-15T05:04:14;95969.78;;;8.69;66.66
22755;BME280;11544;42.020;23.094;2023-03-15T05:06:41;95961.84;;;8.35;67.86
22755;BME280;11544;42.020;23.094;2023-03-15T05:09:08;95961.88;;;8.54;67.80
22755;BME280;11544;42.020;23.094;2023-03-15T05:11:44;95975.63;;;8.92;67.00
22755;BME280;11544;42.020;23.094;2023-03-15T05:14:12;95973.03;;;8.92;66.02
22755;BME280;11544;42.020;23.094;2023-03-15T05:16:39;95970.25;;;8.95;65.86
22755;BME280;11544;42.020;23.094;2023-03-15T05:19:06;95963.56;;;9.08;65.15
22755;BME280;11544;42.020;23.094;2023-03-15T05:21:33;95950.72;;;9.05;65.43
22755;BME280;11544;42.020;23.094;2023-03-15T05:24:00;95964.53;;;8.88;65.92
22755;BME280;11544;42.020;23.094;2023-03-15T05:26:28;95967.09;;;9.07;65.69
22755;BME280;11544;42.020;23.094;2023-03-15T05:28:54;95961.94;;;9.23;65.11
22755;BME280;11544;42.020;23.094;2023-03-15T05:31:21;95972.28;;;9.07;66.26
22755;BME280;11544;42.020;23.094;2023-03-15T05:33:50;95985.69;;;8.81;66.00
22755;BME280;11544;42.020;23.094;2023-03-15T05:36:19;95985.50;;;9.03;65.46
22755;BME280;11544;42.020;23.094;2023-03-15T05:38:47;95967.41;;;9.36;65.12
22755;BME280;11544;42.020;23.094;2023-03-15T05:41:14;95971.81;;;9.34;64.62
22755;BME280;11544;42.020;23.094;2023-03-15T05:43:44;95966.31;;;9.23;64.92
22755;BME280;11544;42.020;23.094;2023-03-15T05:46:10;95967.38;;;9.53;63.08
22755;BME280;11544;42.020;23.094;2023-03-15T05:48:38;95971.94;;;9.83;62.68
22755;BME280;11544;42.020;23.094;2023-03-15T05:51:04;95965.00;;;9.66;62.85
22755;BME280;11544;42.020;23.094;2023-03-15T05:53:31;95956.44;;;9.64;61.45
22755;BME280;11544;42.020;23.094;2023-03-15T05:55:58;95958.72;;;9.53;60.61
22755;BME280;11544;42.020;23.094;2023-03-15T05:58:26;95957.56;;;9.59;61.03
22755;BME280;11544;42.020;23.094;2023-03-15T06:00:52;95958.75;;;10.35;69.83
22755;BME280;11544;42.020;23.094;2023-03-15T06:03:19;95956.78;;;9.57;61.47
22755;BME280;11544;42.020;23.094;2023-03-15T06:05:46;95945.56;;;9.56;61.81
22755;BME280;11544;42.020;23.094;2023-03-15T06:08:13;95944.78;;;9.87;59.22
22755;BME280;11544;42.020;23.094;2023-03-15T06:10:40;95937.31;;;9.48;55.29
22755;BME280;11544;42.020;23.094;2023-03-15T06:13:09;95941.72;;;9.96;54.47
22755;BME280;11544;42.020;23.094;2023-03-15T06:15:36;95938.97;;;9.66;53.67
22755;BME280;11544;42.020;23.094;2023-03-15T06:18:03;95945.31;;;9.94;53.44
22755;BME280;11544;42.020;23.094;2023-03-15T06:20:30;95936.88;;;10.06;52.77
22755;BME280;11544;42.020;23.094;2023-03-15T06:22:57;95941.66;;;9.65;51.57
22755;BME280;11544;42.020;23.094;2023-03-15T06:25:24;95940.81;;;9.98;50.88
22755;BME280;11544;42.020;23.094;2023-03-15T06:27:51;95939.69;;;9.86;50.07
22755;BME280;11544;42.020;23.094;2023-03-15T06:30:18;95942.66;;;10.27;48.72
22755;BME280;11544;42.020;23.094;2023-03-15T06:32:46;95953.19;;;10.26;51.59
22755;BME280;11544;42.020;23.094;2023-03-15T06:35:13;95950.47;;;10.27;53.65
22755;BME280;11544;42.020;23.094;2023-03-15T06:37:40;95949.38;;;10.15;55.52
22755;BME280;11544;42.020;23.094;2023-03-15T06:40:09;95949.94;;;10.38;55.36
22755;BME280;11544;42.020;23.094;2023-03-15T06:42:38;95946.25;;;10.42;54.45
22755;BME280;11544;42.020;23.094;2023-03-15T06:45:08;95959.28;;;10.42;55.42
22755;BME280;11544;42.020;23.094;2023-03-15T06:47:35;95947.09;;;10.58;53.95
22755;BME280;11544;42.020;23.094;2023-03-15T06:50:03;95945.81;;;10.50;53.99
22755;BME280;11544;42.020;23.094;2023-03-15T06:52:30;95952.72;;;10.35;53.79
22755;BME280;11544;42.020;23.094;2023-03-15T06:54:57;95957.06;;;10.34;53.93
22755;BME280;11544;42.020;23.094;2023-03-15T06:57:24;95950.84;;;10.69;53.38
22755;BME280;11544;42.020;23.094;2023-03-15T06:59:51;95960.59;;;10.81;53.07
22755;BME280;11544;42.020;23.094;2023-03-15T07:02:19;95956.81;;;10.87;52.77
22755;BME280;11544;42.020;23.094;2023-03-15T07:04:46;95968.81;;;10.89;52.38
22755;BME280;11544;42.020;23.094;2023-03-15T07:07:14;95960.97;;;11.05;52.35
22755;BME280;11544;42.020;23.094;2023-03-15T07:09:41;95954.50;;;11.27;51.56
22755;BME280;11544;42.020;23.094;2023-03-15T07:12:08;95960.91;;;11.21;51.26
22755;BME280;11544;42.020;23.094;2023-03-15T07:14:35;95951.25;;;11.68;50.11
22755;BME280;11544;42.020;23.094;2023-03-15T07:17:03;95946.53;;;11.44;50.11
22755;BME280;11544;42.020;23.094;2023-03-15T07:19:30;95943.72;;;11.33;49.55
22755;BME280;11544;42.020;23.094;2023-03-15T07:22:07;95935.91;;;11.02;48.58
22755;BME280;11544;42.020;23.094;2023-03-15T07:24:36;95927.22;;;10.72;47.71
22755;BME280;11544;42.020;23.094;2023-03-15T07:27:03;95921.09;;;10.57;46.97
22755;BME280;11544;42.020;23.094;2023-03-15T07:29:29;95925.06;;;10.48;46.13
22755;BME280;11544;42.020;23.094;2023-03-15T07:31:56;95925.56;;;10.39;45.30
22755;BME280;11544;42.020;23.094;2023-03-15T07:34:23;95937.56;;;10.57;44.15
22755;BME280;11544;42.020;23.094;2023-03-15T07:36:50;95941.22;;;11.01;43.76
22755;BME280;11544;42.020;23.094;2023-03-15T07:39:17;95942.38;;;10.95;44.14
22755;BME280;11544;42.020;23.094;2023-03-15T07:41:44;95952.47;;;11.01;43.59
22755;BME280;11544;42.020;23.094;2023-03-15T07:44:29;95959.91;;;11.23;42.26
22755;BME280;11544;42.020;23.094;2023-03-15T07:46:56;95960.44;;;11.14;41.75
22755;BME280;11544;42.020;23.094;2023-03-15T07:49:23;95952.88;;;11.40;41.01
22755;BME280;11544;42.020;23.094;2023-03-15T07:51:50;95950.91;;;10.99;41.67
22755;BME280;11544;42.020;23.094;2023-03-15T07:54:17;95944.44;;;11.20;41.93
22755;BME280;11544;42.020;23.094;2023-03-15T07:56:44;95939.75;;;11.56;41.84
22755;BME280;11544;42.020;23.094;2023-03-15T07:59:11;95940.69;;;11.69;41.23
22755;BME280;11544;42.020;23.094;2023-03-15T08:01:38;95944.97;;;11.56;40.61
22755;BME280;11544;42.020;23.094;2023-03-15T08:04:05;95951.63;;;11.31;40.67
22755;BME280;11544;42.020;23.094;2023-03-15T08:06:32;95944.13;;;11.41;40.10
22755;BME280;11544;42.020;23.094;2023-03-15T08:08:59;95932.97;;;11.23;40.09
22755;BME280;11544;42.020;23.094;2023-03-15T08:11:26;95938.47;;;11.18;40.02
22755;BME280;11544;42.020;23.094;2023-03-15T08:13:54;95944.56;;;11.33;40.23
22755;BME280;11544;42.020;23.094;2023-03-15T08:16:20;95941.97;;;11.48;39.83
22755;BME280;11544;42.020;23.094;2023-03-15T08:18:47;95946.34;;;11.47;40.23
22755;BME280;11544;42.020;23.094;2023-03-15T08:21:14;95934.13;;;11.48;40.17
22755;BME280;11544;42.020;23.094;2023-03-15T08:23:41;95945.56;;;11.31;40.47
22755;BME280;11544;42.020;23.094;2023-03-15T08:26:09;95949.03;;;11.01;40.94
22755;BME280;11544;42.020;23.094;2023-03-15T08:28:36;95950.97;;;11.28;40.96
22755;BME280;11544;42.020;23.094;2023-03-15T08:31:07;95967.06;;;10.90;41.35
22755;BME280;11544;42.020;23.094;2023-03-15T08:33:34;95964.63;;;10.87;41.92
22755;BME280;11544;42.020;23.094;2023-03-15T08:36:01;95958.47;;;11.04;41.78
22755;BME280;11544;42.020;23.094;2023-03-15T08:38:28;95952.38;;;10.73;42.17
22755;BME280;11544;42.020;23.094;2023-03-15T08:40:56;95954.78;;;10.92;42.13
22755;BME280;11544;42.020;23.094;2023-03-15T08:43:24;95939.53;;;11.00;42.47
22755;BME280;11544;42.020;23.094;2023-03-15T08:45:51;95937.81;;;10.69;42.72
22755;BME280;11544;42.020;23.094;2023-03-15T08:48:27;95928.19;;;11.01;43.01
22755;BME280;11544;42.020;23.094;2023-03-15T08:50:54;95935.13;;;11.31;41.97
22755;BME280;11544;42.020;23.094;2023-03-15T08:53:20;95953.50;;;10.99;42.89
22755;BME280;11544;42.020;23.094;2023-03-15T08:55:47;95951.91;;;10.96;43.06
22755;BME280;11544;42.020;23.094;2023-03-15T08:58:15;95941.91;;;10.89;42.77
22755;BME280;11544;42.020;23.094;2023-03-15T09:00:42;95942.88;;;11.32;42.57
22755;BME280;11544;42.020;23.094;2023-03-15T09:03:09;95943.75;;;11.47;41.84
22755;BME280;11544;42.020;23.094;2023-03-15T09:05:36;95940.75;;;11.39;41.83
22755;BME280;11544;42.020;23.094;2023-03-15T09:08:03;95948.66;;;11.37;41.60
22755;BME280;11544;42.020;23.094;2023-03-15T09:10:31;95940.84;;;11.07;42.53
22755;BME280;11544;42.020;23.094;2023-03-15T09:13:00;95942.09;;;11.16;42.04
22755;BME280;11544;42.020;23.094;2023-03-15T09:15:27;95948.78;;;11.50;42.41
22755;BME280;11544;42.020;23.094;2023-03-15T09:17:54;95944.25;;;11.68;42.27
22755;BME280;11544;42.020;23.094;2023-03-15T09:20:22;95942.69;;;11.94;42.31
22755;BME280;11544;42.020;23.094;2023-03-15T09:22:55;95932.41;;;11.62;43.00
22755;BME280;11544;42.020;23.094;2023-03-15T09:25:23;95933.81;;;11.68;43.72
22755;BME280;11544;42.020;23.094;2023-03-15T09:27:50;95941.31;;;11.89;43.58
22755;BME280;11544;42.020;23.094;2023-03-15T09:30:17;95939.09;;;11.66;41.68
22755;BME280;11544;42.020;23.094;2023-03-15T09:32:44;95949.69;;;11.05;41.10
22755;BME280;11544;42.020;23.094;2023-03-15T09:35:14;95940.31;;;11.61;40.26
22755;BME280;11544;42.020;23.094;2023-03-15T09:37:41;95938.94;;;11.55;40.01
22755;BME280;11544;42.020;23.094;2023-03-15T09:40:16;95939.47;;;11.46;41.03
22755;BME280;11544;42.020;23.094;2023-03-15T09:54:25;95926.78;;;11.40;41.17
22755;BME280;11544;42.020;23.094;2023-03-15T09:57:02;95945.94;;;10.94;41.56
22755;BME280;11544;42.020;23.094;2023-03-15T09:59:50;95929.88;;;11.47;41.41
22755;BME280;11544;42.020;23.094;2023-03-15T10:02:23;95938.34;;;11.06;41.34
22755;BME280;11544;42.020;23.094;2023-03-15T10:05:11;95931.91;;;11.41;41.63
22755;BME280;11544;42.020;23.094;2023-03-15T10:07:39;95932.22;;;11.65;41.42
22755;BME280;11544;42.020;23.094;2023-03-15T10:10:29;95942.59;;;10.76;40.82
22755;BME280;11544;42.020;23.094;2023-03-15T10:13:20;95938.16;;;11.39;40.30
22755;BME280;11544;42.020;23.094;2023-03-15T10:16:19;95954.06;;;11.04;40.58
22755;BME280;11544;42.020;23.094;2023-03-15T10:24:46;95938.34;;;11.06;40.19
22755;BME280;11544;42.020;23.094;2023-03-15T10:29:48;95936.19;;;11.12;40.00
22755;BME280;11544;42.020;23.094;2023-03-15T10:32:18;95928.56;;;11.39;40.38
22755;BME280;11544;42.020;23.094;2023-03-15T10:34:51;95927.06;;;11.05;41.11
22755;BME280;11544;42.020;23.094;2023-03-15T10:37:18;95924.53;;;10.57;42.06
22755;BME280;11544;42.020;23.094;2023-03-15T10:39:47;95925.28;;;10.28;41.73
22755;BME280;11544;42.020;23.094;2023-03-15T10:42:30;95923.00;;;10.22;41.67
22755;BME280;11544;42.020;23.094;2023-03-15T10:44:58;95920.97;;;10.44;41.71
22755;BME280;11544;42.020;23.094;2023-03-15T10:47:26;95924.25;;;10.94;42.63
22755;BME280;11544;42.020;23.094;2023-03-15T10:49:57;95930.75;;;10.55;43.84
22755;BME280;11544;42.020;23.094;2023-03-15T10:52:31;95922.38;;;10.50;43.95
22755;BME280;11544;42.020;23.094;2023-03-15T11:00:52;95907.03;;;10.75;44.71
22755;BME280;11544;42.020;23.094;2023-03-15T11:03:22;95906.03;;;10.62;44.43
22755;BME280;11544;42.020;23.094;2023-03-15T11:05:51;95908.91;;;10.73;44.89
22755;BME280;11544;42.020;23.094;2023-03-15T11:08:21;95907.69;;;10.49;45.35
22755;BME280;11544;42.020;23.094;2023-03-15T11:10:57;95907.91;;;10.60;45.36
22755;BME280;11544;42.020;23.094;2023-03-15T11:13:29;95896.09;;;10.85;43.65
22755;BME280;11544;42.020;23.094;2023-03-15T11:16:18;95899.03;;;10.78;43.10
22755;BME280;11544;42.020;23.094;2023-03-15T11:18:56;95896.34;;;10.80;43.93
22755;BME280;11544;42.020;23.094;2023-03-15T11:21:27;95888.88;;;10.74;44.00
22755;BME280;11544;42.020;23.094;2023-03-15T11:24:01;95889.69;;;10.90;43.59
22755;BME280;11544;42.020;23.094;2023-03-15T11:26:36;95891.53;;;11.18;43.19
22755;BME280;11544;42.020;23.094;2023-03-15T11:29:11;95888.44;;;10.81;43.82
22755;BME280;11544;42.020;23.094;2023-03-15T11:31:40;95881.00;;;10.59;43.91
22755;BME280;11544;42.020;23.094;2023-03-15T11:34:14;95876.69;;;10.74;43.19
22755;BME280;11544;42.020;23.094;2023-03-15T11:36:44;95877.41;;;10.92;43.29
22755;BME280;11544;42.020;23.094;2023-03-15T11:39:45;95869.00;;;10.87;42.37
22755;BME280;11544;42.020;23.094;2023-03-15T11:42:26;95877.34;;;10.78;41.74
22755;BME280;11544;42.020;23.094;2023-03-15T11:44:57;95871.06;;;10.82;42.66
22755;BME280;11544;42.020;23.094;2023-03-15T11:47:38;95879.44;;;10.41;42.47
22755;BME280;11544;42.020;23.094;2023-03-15T11:50:12;95872.78;;;10.20;43.21
22755;BME280;11544;42.020;23.094;2023-03-15T11:52:39;95880.34;;;10.24;42.91
22755;BME280;11544;42.020;23.094;2023-03-15T11:55:15;95874.78;;;10.62;43.19
22755;BME280;11544;42.020;23.094;2023-03-15T11:57:46;95872.66;;;10.69;42.92
22755;BME280;11544;42.020;23.094;2023-03-15T12:08:45;95882.50;;;10.79;40.39
22755;BME280;11544;42.020;23.094;2023-03-15T12:16:26;95870.59;;;10.44;41.02
22755;BME280;11544;42.020;23.094;2023-03-15T12:18:58;95874.91;;;10.29;41.16
22755;BME280;11544;42.020;23.094;2023-03-15T12:21:42;95874.72;;;10.48;42.24
22755;BME280;11544;42.020;23.094;2023-03-15T12:24:28;95874.28;;;10.08;41.83
22755;BME280;11544;42.020;23.094;2023-03-15T12:27:03;95869.00;;;10.41;41.26
22755;BME280;11544;42.020;23.094;2023-03-15T12:29:33;95868.91;;;10.27;42.73
22755;BME280;11544;42.020;23.094;2023-03-15T12:37:45;95862.25;;;10.69;45.47
22755;BME280;11544;42.020;23.094;2023-03-15T12:53:20;95874.97;;;9.95;46.33
22755;BME280;11544;42.020;23.094;2023-03-15T12:55:50;95861.19;;;10.41;47.16
22755;BME280;11544;42.020;23.094;2023-03-15T12:58:28;95855.47;;;10.34;47.94
22755;BME280;11544;42.020;23.094;2023-03-15T13:01:03;95861.50;;;10.67;48.01
22755;BME280;11544;42.020;23.094;2023-03-15T13:03:33;95866.81;;;10.49;49.53
22755;BME280;11544;42.020;23.094;2023-03-15T13:06:18;95873.00;;;10.63;49.41
22755;BME280;11544;42.020;23.094;2023-03-15T13:09:01;95864.63;;;10.42;50.28
22755;BME280;11544;42.020;23.094;2023-03-15T13:11:56;95868.06;;;10.10;52.33
22755;BME280;11544;42.020;23.094;2023-03-15T13:17:11;95851.63;;;10.26;53.33
22755;BME280;11544;42.020;23.094;2023-03-15T13:19:45;95851.94;;;10.51;52.90
22755;BME280;11544;42.020;23.094;2023-03-15T13:22:28;95851.59;;;10.57;54.24
22755;BME280;11544;42.020;23.094;2023-03-15T13:25:06;95849.75;;;10.44;55.19
22755;BME280;11544;42.020;23.094;2023-03-15T13:27:54;95857.16;;;10.20;56.97
22755;BME280;11544;42.020;23.094;2023-03-15T13:30:39;95857.56;;;10.59;57.28
22755;BME280;11544;42.020;23.094;2023-03-15T13:36:15;95848.78;;;10.30;55.86
22755;BME280;11544;42.020;23.094;2023-03-15T13:38:49;95843.78;;;10.42;56.38
22755;BME280;11544;42.020;23.094;2023-03-15T13:41:20;95852.91;;;10.65;55.79
22755;BME280;11544;42.020;23.094;2023-03-15T13:43:50;95852.72;;;10.37;56.01
22755;BME280;11544;42.020;23.094;2023-03-15T13:46:19;95853.28;;;10.58;55.58
22755;BME280;11544;42.020;23.094;2023-03-15T13:48:49;95859.97;;;10.63;56.08
22755;BME280;11544;42.020;23.094;2023-03-15T13:53:50;95851.59;;;10.42;55.26
22755;BME280;11544;42.020;23.094;2023-03-15T13:56:21;95848.34;;;10.54;55.15
22755;BME280;11544;42.020;23.094;2023-03-15T13:58:55;95845.56;;;10.41;55.20
22755;BME280;11544;42.020;23.094;2023-03-15T14:01:23;95849.84;;;10.72;54.54
22755;BME280;11544;42.020;23.094;2023-03-15T14:03:59;95844.53;;;10.90;55.20
22755;BME280;11544;42.020;23.094;2023-03-15T14:06:27;95843.88;;;11.00;55.07
22755;BME280;11544;42.020;23.094;2023-03-15T14:09:00;95841.94;;;11.04;53.97
22755;BME280;11544;42.020;23.094;2023-03-15T14:11:34;95832.72;;;10.98;53.08
22755;BME280;11544;42.020;23.094;2023-03-15T14:14:22;95837.00;;;10.99;53.41
22755;BME280;11544;42.020;23.094;2023-03-15T14:16:50;95831.47;;;11.20;53.14
22755;BME280;11544;42.020;23.094;2023-03-15T14:19:32;95827.59;;;10.97;53.90
22755;BME280;11544;42.020;23.094;2023-03-15T14:22:12;95827.97;;;11.19;53.65
22755;BME280;11544;42.020;23.094;2023-03-15T14:24:43;95822.22;;;11.14;53.19
22755;BME280;11544;42.020;23.094;2023-03-15T14:27:16;95825.06;;;10.95;53.94
22755;BME280;11544;42.020;23.094;2023-03-15T14:29:51;95824.75;;;10.71;54.57